createdAt,value
2023-04-20T11:00:25.582Z,97.37
2023-04-20T11:01:25.535Z,97.94
2023-04-20T11:03:18.403Z,97.66
2023-04-20T11:04:19.299Z,96.98
2023-04-20T11:06:22.205Z,97.22
2023-04-20T11:07:22.163Z,96.84
2023-04-20T11:09:26.066Z,96.08
2023-04-20T11:10:26.023Z,95.51
2023-04-20T11:12:29.908Z,95.61
2023-04-20T11:13:29.872Z,95.17
2023-04-20T11:15:33.777Z,93.93
2023-04-20T11:16:47.023Z,94.12
2023-04-20T11:18:37.619Z,93.84
2023-04-20T11:19:37.584Z,93.84
2023-04-20T11:21:41.531Z,93.07
2023-04-20T11:22:41.452Z,93.26
2023-04-20T11:24:45.351Z,93.88
2023-04-20T11:25:45.310Z,94.17
2023-04-20T11:27:49.224Z,93.02
2023-04-20T11:28:49.168Z,93.12
2023-04-20T11:30:53.115Z,93.02
2023-04-20T11:31:53.138Z,92.83
2023-04-20T11:33:56.958Z,92.26
2023-04-20T11:35:06.031Z,92.36
2023-04-20T11:37:00.798Z,91.59
2023-04-20T11:38:00.764Z,92.16
2023-04-20T11:40:04.666Z,91.40
2023-04-20T11:41:04.800Z,91.59
2023-04-20T11:42:57.464Z,91.74
2023-04-20T11:43:57.406Z,91.40
2023-04-20T11:46:01.360Z,91.35
2023-04-20T11:47:01.263Z,91.16
2023-04-20T11:49:05.677Z,90.78
2023-04-20T11:50:05.621Z,91.45
2023-04-20T11:51:05.587Z,91.25
2023-04-20T11:52:05.563Z,90.78
2023-04-20T11:53:05.529Z,90.59
2023-04-20T11:54:05.497Z,91.21
2023-04-20T11:55:05.463Z,90.01
2023-04-20T11:56:05.417Z,89.82
2023-04-20T11:57:05.411Z,90.35
2023-04-20T11:58:05.349Z,90.49
2023-04-20T11:59:05.318Z,90.49
2023-04-20T12:00:05.275Z,90.88
2023-04-20T12:01:05.301Z,90.59
2023-04-20T12:02:05.284Z,89.53
2023-04-20T12:03:05.328Z,88.58
2023-04-20T12:04:05.509Z,88.10
2023-04-20T12:05:05.223Z,88.58
2023-04-20T12:06:05.098Z,88.39
2023-04-20T12:07:05.047Z,88.96
2023-04-20T12:08:05.015Z,87.72
2023-04-20T12:09:04.974Z,87.43
2023-04-20T12:10:04.955Z,86.38
2023-04-20T12:11:04.904Z,87.38
2023-04-20T12:12:04.874Z,87.86
2023-04-20T12:13:04.841Z,86.71
2023-04-20T12:14:04.826Z,85.66
2023-04-20T12:15:04.787Z,87.00
2023-04-20T12:16:04.756Z,87.43
2023-04-20T12:17:04.720Z,86.66
2023-04-20T12:18:04.710Z,86.47
2023-04-20T12:19:04.683Z,86.28
2023-04-20T12:20:04.696Z,85.13
2023-04-20T12:21:04.568Z,85.13
2023-04-20T12:22:04.543Z,84.17
2023-04-20T12:23:04.505Z,85.32
2023-04-20T12:24:04.464Z,84.27
2023-04-20T12:25:04.447Z,84.36
2023-04-20T12:26:04.426Z,84.36
2023-04-20T12:27:04.363Z,83.22
2023-04-20T12:28:04.340Z,83.73
2023-04-20T12:29:04.344Z,84.12
2023-04-20T12:30:04.300Z,83.78
2023-04-20T12:31:04.268Z,82.73
2023-04-20T12:32:04.213Z,83.20
2023-04-20T12:33:04.296Z,82.43
2023-04-20T12:34:04.136Z,82.15
2023-04-20T12:35:04.177Z,81.67
2023-04-20T12:36:04.088Z,80.33
2023-04-20T12:37:04.037Z,81.20
2023-04-20T12:38:04.010Z,81.52
2023-04-20T12:39:03.970Z,81.71
2023-04-20T12:40:03.941Z,80.51
2023-04-20T12:41:03.901Z,79.93
2023-04-20T12:42:03.869Z,79.64
2023-04-20T12:43:03.877Z,79.83
2023-04-20T12:44:06.689Z,77.82
2023-04-20T12:45:03.783Z,77.63
2023-04-20T12:46:03.742Z,77.53
2023-04-20T12:47:03.805Z,78.44
2023-04-20T12:48:03.732Z,77.67
2023-04-20T12:49:03.669Z,76.48
2023-04-20T12:50:03.622Z,77.06
2023-04-20T12:51:03.581Z,76.00
2023-04-20T12:52:04.215Z,75.87
2023-04-20T12:53:03.545Z,76.44
2023-04-20T12:54:03.500Z,75.58
2023-04-20T12:55:03.455Z,75.68
2023-04-20T12:56:03.427Z,75.96
2023-04-20T12:57:03.402Z,76.35
2023-04-20T12:58:03.370Z,77.02
2023-04-20T12:59:03.341Z,77.02
2023-04-20T13:00:03.310Z,77.78
2023-04-20T13:01:03.281Z,77.06
2023-04-20T13:02:03.314Z,76.96
2023-04-20T13:03:03.296Z,76.10
2023-04-20T13:04:03.386Z,76.62
2023-04-20T13:05:03.251Z,76.62
2023-04-20T13:06:03.110Z,75.75
2023-04-20T13:07:03.072Z,74.85
2023-04-20T13:08:03.052Z,74.85
2023-04-20T13:09:03.031Z,76.04
2023-04-20T13:10:02.974Z,74.79
2023-04-20T13:11:02.972Z,74.83
2023-04-20T13:12:02.945Z,74.44
2023-04-20T13:13:02.905Z,74.96
2023-04-20T13:14:02.867Z,74.04
2023-04-20T13:15:02.818Z,72.99
2023-04-20T13:16:02.806Z,71.83
2023-04-20T13:17:02.803Z,71.73
2023-04-20T13:18:02.751Z,72.28
2023-04-20T13:19:02.697Z,72.37
2023-04-20T13:20:02.664Z,71.98
2023-04-20T13:21:02.639Z,72.28
2023-04-20T13:22:02.600Z,71.89
2023-04-20T13:23:02.570Z,71.03
2023-04-20T13:24:02.551Z,71.61
2023-04-20T13:25:02.502Z,71.22
2023-04-20T13:26:02.478Z,70.93
2023-04-20T13:27:02.451Z,71.41
2023-04-20T13:28:02.413Z,71.41
2023-04-20T13:29:02.389Z,71.09
2023-04-20T13:30:02.360Z,71.76
2023-04-20T13:31:02.329Z,71.76
2023-04-20T13:32:02.339Z,70.80
2023-04-20T13:33:02.323Z,71.86
2023-04-20T13:34:02.239Z,71.76
2023-04-20T13:35:02.206Z,72.24
2023-04-20T13:36:02.172Z,72.08
2023-04-20T13:37:02.159Z,70.74
2023-04-20T13:38:02.103Z,70.93
2023-04-20T13:39:02.072Z,70.78
2023-04-20T13:40:02.112Z,70.78
2023-04-20T13:41:02.027Z,71.58
2023-04-20T13:42:01.993Z,70.23
2023-04-20T13:43:01.983Z,68.83
2023-04-20T13:44:01.927Z,68.06
2023-04-20T13:45:01.893Z,67.22
2023-04-20T13:46:01.937Z,66.27
2023-04-20T13:47:01.840Z,64.95
2023-04-20T13:48:01.928Z,65.33
2023-04-20T13:49:01.781Z,65.27
2023-04-20T13:50:01.745Z,64.37
2023-04-20T13:51:01.707Z,63.54
2023-04-20T13:52:01.693Z,63.06
2023-04-20T13:53:01.650Z,62.60
2023-04-20T13:54:01.621Z,63.38
2023-04-20T13:55:01.602Z,62.22
2023-04-20T13:56:01.571Z,62.03
2023-04-20T13:57:01.539Z,60.23
2023-04-20T13:58:01.504Z,60.83
2023-04-20T13:59:01.471Z,60.55
2023-04-20T14:00:01.585Z,60.19
2023-04-20T14:01:01.470Z,57.97
2023-04-20T14:02:01.450Z,59.00
2023-04-20T14:03:01.484Z,58.65
2023-04-20T14:04:01.565Z,57.68
2023-04-20T14:05:01.313Z,56.81
2023-04-20T14:06:01.285Z,57.75
2023-04-20T14:07:01.250Z,58.17
2023-04-20T14:08:01.228Z,57.87
2023-04-20T14:09:01.241Z,58.19
2023-04-20T14:10:01.173Z,58.03
2023-04-20T14:11:01.140Z,58.15
2023-04-20T14:12:01.113Z,56.32
2023-04-20T14:13:01.092Z,54.97
2023-04-20T14:14:01.068Z,54.58
2023-04-20T14:15:01.039Z,54.49
2023-04-20T14:16:01.035Z,55.09
2023-04-20T14:17:01.004Z,54.87
2023-04-20T14:18:01.000Z,54.10
2023-04-20T14:19:00.925Z,53.93
2023-04-20T14:20:00.916Z,53.45
2023-04-20T14:21:00.872Z,52.99
2023-04-20T14:22:00.852Z,52.41
2023-04-20T14:23:00.827Z,51.90
2023-04-20T14:24:00.791Z,52.36
2023-04-20T14:25:00.794Z,52.14
2023-04-20T14:26:00.739Z,53.27
2023-04-20T14:27:00.708Z,53.47
2023-04-20T14:28:00.689Z,53.66
2023-04-20T14:29:00.667Z,53.56
2023-04-20T14:30:00.633Z,54.17
2023-04-20T14:31:00.668Z,54.29
2023-04-20T14:32:00.606Z,53.81
2023-04-20T14:33:00.656Z,53.11
2023-04-20T14:34:00.533Z,53.11
2023-04-20T14:35:00.492Z,53.49
2023-04-20T14:36:00.493Z,53.20
2023-04-20T14:37:00.440Z,53.66
2023-04-20T14:38:00.413Z,54.02
2023-04-20T14:39:00.402Z,54.86
2023-04-20T14:40:00.367Z,55.54
2023-04-20T14:41:00.352Z,56.04
2023-04-20T14:42:00.305Z,56.36
2023-04-20T14:43:00.281Z,55.49
2023-04-20T14:44:00.258Z,55.40
2023-04-20T14:45:00.242Z,53.95
2023-04-20T14:46:00.220Z,53.34
2023-04-20T14:47:00.241Z,52.95
2023-04-20T14:48:00.200Z,54.02
2023-04-20T14:49:00.176Z,53.63
2023-04-20T14:50:00.126Z,53.25
2023-04-20T14:51:00.054Z,53.53
2023-04-20T14:52:00.030Z,53.41
2023-04-20T14:53:00.000Z,53.89
2023-04-20T14:53:59.967Z,54.16
2023-04-20T14:54:59.940Z,54.03
2023-04-20T14:55:59.913Z,54.22
2023-04-20T14:56:59.889Z,55.67
2023-04-20T14:57:59.853Z,55.96
2023-04-20T14:58:59.826Z,55.67
2023-04-20T14:59:59.802Z,55.77
2023-04-20T15:00:59.789Z,56.80
2023-04-20T15:02:02.674Z,56.60
2023-04-20T15:02:59.979Z,56.77
2023-04-20T15:03:59.793Z,56.74
2023-04-20T15:04:59.780Z,58.37
2023-04-20T15:05:59.714Z,58.67
2023-04-20T15:06:59.595Z,58.18
2023-04-20T15:07:59.569Z,58.57
2023-04-20T15:08:59.542Z,59.24
2023-04-20T15:09:59.511Z,59.53
2023-04-20T15:10:59.489Z,58.76
2023-04-20T15:11:59.453Z,57.60
2023-04-20T15:12:59.416Z,58.37
2023-04-20T15:13:59.394Z,58.40
2023-04-20T15:14:59.355Z,58.31
2023-04-20T15:15:59.464Z,57.06
2023-04-20T15:16:59.352Z,57.45
2023-04-20T15:17:59.312Z,56.77
2023-04-20T15:18:59.235Z,57.67
2023-04-20T15:19:59.219Z,57.47
2023-04-20T15:20:59.176Z,57.40
2023-04-20T15:21:59.157Z,56.44
2023-04-20T15:22:59.143Z,56.15
2023-04-20T15:23:59.102Z,55.38
2023-04-20T15:24:59.069Z,55.67
2023-04-20T15:25:59.032Z,54.74
2023-04-20T15:26:59.044Z,54.44
2023-04-20T15:27:58.993Z,54.83
2023-04-20T15:28:58.956Z,55.51
2023-04-20T15:29:58.916Z,55.41
2023-04-20T15:30:58.894Z,54.93
2023-04-20T15:31:58.892Z,54.03
2023-04-20T15:33:04.371Z,54.71
2023-04-20T15:33:58.805Z,54.52
2023-04-20T15:34:58.777Z,54.58
2023-04-20T15:35:58.746Z,54.39
2023-04-20T15:36:58.730Z,55.35
2023-04-20T15:37:58.691Z,55.43
2023-04-20T15:38:58.663Z,55.43
2023-04-20T15:39:58.628Z,56.48
2023-04-20T15:40:58.601Z,56.29
2023-04-20T15:41:58.575Z,57.06
2023-04-20T15:42:58.557Z,56.77
2023-04-20T15:43:58.512Z,56.74
2023-04-20T15:44:58.494Z,56.84
2023-04-20T15:45:58.484Z,56.81
2023-04-20T15:46:58.421Z,57.48
2023-04-20T15:47:58.428Z,57.77
2023-04-20T15:48:58.367Z,58.15
2023-04-20T15:49:58.337Z,57.20
2023-04-20T15:50:58.304Z,57.58
2023-04-20T15:51:58.277Z,58.06
2023-04-20T15:52:58.246Z,57.39
2023-04-20T15:53:58.226Z,57.36
2023-04-20T15:54:58.192Z,57.68
2023-04-20T15:55:58.165Z,57.75
2023-04-20T15:56:58.138Z,59.09
2023-04-20T15:57:58.151Z,59.28
2023-04-20T15:58:58.074Z,59.57
2023-04-20T15:59:58.034Z,58.80
2023-04-20T16:01:05.785Z,58.39
2023-04-20T16:01:58.726Z,59.28
2023-04-20T16:02:58.081Z,59.19
2023-04-20T16:03:58.162Z,59.47
2023-04-20T16:04:58.184Z,59.66
2023-04-20T16:05:57.859Z,59.38
2023-04-20T16:06:57.831Z,59.47
2023-04-20T16:07:57.799Z,59.57
2023-04-20T16:08:57.785Z,60.05
2023-04-20T16:09:57.737Z,59.57
2023-04-20T16:10:57.703Z,59.76
2023-04-20T16:12:22.195Z,59.38
2023-04-20T16:12:58.192Z,59.28
2023-04-20T16:13:57.649Z,59.50
2023-04-20T16:14:57.580Z,59.60
2023-04-20T16:15:57.590Z,58.32
2023-04-20T16:16:57.527Z,58.42
2023-04-20T16:17:57.530Z,58.51
2023-04-20T16:18:57.458Z,58.80
2023-04-20T16:19:57.459Z,58.22
2023-04-20T16:20:57.395Z,58.13
2023-04-20T16:21:57.368Z,58.22
2023-04-20T16:22:57.337Z,58.61
2023-04-20T16:23:57.307Z,59.38
2023-04-20T16:24:57.277Z,59.69
2023-04-20T16:25:57.266Z,58.61
2023-04-20T16:26:57.216Z,58.73
2023-04-20T16:27:57.193Z,58.45
2023-04-20T16:28:57.165Z,58.73
2023-04-20T16:29:57.125Z,58.54
2023-04-20T16:30:57.147Z,58.54
2023-04-20T16:31:57.266Z,57.77
2023-04-20T16:32:57.107Z,57.97
2023-04-20T16:33:57.017Z,58.25
2023-04-20T16:34:56.984Z,57.58
2023-04-20T16:35:56.959Z,58.28
2023-04-20T16:36:56.926Z,58.67
2023-04-20T16:37:56.892Z,58.22
2023-04-20T16:38:56.870Z,57.54
2023-04-20T16:39:56.829Z,57.03
2023-04-20T16:40:56.798Z,56.84
2023-04-20T16:41:56.771Z,57.13
2023-04-20T16:42:56.749Z,57.03
2023-04-20T16:44:56.682Z,56.62
2023-04-20T16:45:56.670Z,56.59
2023-04-20T16:46:56.703Z,56.68
2023-04-20T16:47:56.619Z,56.95
2023-04-20T16:48:56.566Z,57.04
2023-04-20T16:49:56.548Z,57.62
2023-04-20T16:51:17.494Z,58.00
2023-04-20T16:51:56.483Z,58.39
2023-04-20T16:52:56.448Z,58.67
2023-04-20T16:53:56.415Z,59.54
2023-04-20T16:54:56.378Z,59.66
2023-04-20T16:55:56.367Z,58.80
2023-04-20T16:57:17.331Z,58.32
2023-04-20T16:57:56.296Z,57.75
2023-04-20T16:58:56.258Z,57.65
2023-04-20T16:59:56.263Z,57.75
2023-04-20T17:00:56.228Z,57.77
2023-04-20T17:01:56.195Z,57.68
2023-04-20T17:03:17.386Z,57.29
2023-04-20T17:03:56.153Z,57.20
2023-04-20T17:04:56.072Z,57.48
2023-04-20T17:05:56.053Z,56.30
2023-04-20T17:06:56.014Z,56.71
2023-04-20T17:07:55.991Z,56.59
2023-04-20T17:09:16.958Z,56.46
2023-04-20T17:09:56.008Z,57.14
2023-04-20T17:10:55.894Z,58.39
2023-04-20T17:11:55.890Z,59.64
2023-04-20T17:12:55.849Z,60.60
2023-04-20T17:13:55.813Z,61.17
2023-04-20T17:15:16.788Z,61.84
2023-04-20T17:15:55.751Z,62.52
2023-04-20T17:16:55.764Z,63.35
2023-04-20T17:17:55.712Z,64.02
2023-04-20T17:18:55.671Z,64.59
2023-04-20T17:19:55.694Z,65.46
2023-04-20T17:21:16.589Z,66.42
2023-04-20T17:21:55.563Z,67.25
2023-04-20T17:22:55.529Z,67.73
2023-04-20T17:23:55.502Z,68.46
2023-04-20T17:24:55.516Z,68.56
2023-04-20T17:25:55.438Z,68.95
2023-04-20T17:27:16.394Z,69.33
2023-04-20T17:27:55.406Z,69.04
2023-04-20T17:28:55.343Z,68.81
2023-04-20T17:29:55.337Z,69.01
2023-04-20T17:30:55.309Z,69.96
2023-04-20T17:31:55.304Z,69.68
2023-04-20T17:33:16.206Z,69.96
2023-04-20T17:33:55.181Z,70.03
2023-04-20T17:34:55.187Z,70.60
2023-04-20T17:35:55.129Z,70.21
2023-04-20T17:36:55.088Z,70.60
2023-04-20T17:37:55.059Z,71.42
2023-04-20T17:39:16.016Z,72.00
2023-04-20T17:39:55.094Z,72.19
2023-04-20T17:40:54.962Z,72.48
2023-04-20T17:41:54.922Z,72.77
2023-04-20T17:42:54.888Z,72.96
2023-04-20T17:43:54.867Z,73.24
2023-04-20T17:45:15.816Z,73.34
2023-04-20T17:45:54.849Z,73.21
2023-04-20T17:46:54.759Z,73.50
2023-04-20T17:47:54.796Z,73.30
2023-04-20T17:48:55.309Z,73.59
2023-04-20T17:49:54.744Z,73.50
2023-04-20T17:51:15.628Z,73.59
2023-04-20T17:51:54.599Z,74.16
2023-04-20T17:52:54.585Z,74.45
2023-04-20T17:53:54.533Z,74.41
2023-04-20T17:54:54.492Z,75.27
2023-04-20T17:55:54.462Z,75.66
2023-04-20T17:57:15.436Z,75.47
2023-04-20T17:57:54.385Z,75.56
2023-04-20T17:58:54.360Z,75.56
2023-04-20T17:59:54.397Z,76.10
2023-04-20T18:00:54.307Z,76.57
2023-04-20T18:01:54.278Z,77.06
2023-04-20T18:03:15.327Z,77.34
2023-04-20T18:03:54.449Z,78.20
2023-04-20T18:04:54.314Z,78.78
2023-04-20T18:05:54.477Z,79.35
2023-04-20T18:06:54.108Z,79.64
2023-04-20T18:07:54.066Z,80.02
2023-04-20T18:09:15.035Z,80.21
2023-04-20T18:09:54.004Z,80.69
2023-04-20T18:10:53.962Z,80.30
2023-04-20T18:11:53.949Z,80.11
2023-04-20T18:12:53.907Z,79.54
2023-04-20T18:13:53.854Z,80.11
2023-04-20T18:15:16.330Z,79.69
2023-04-20T18:15:53.800Z,80.46
2023-04-20T18:16:53.768Z,80.55
2023-04-20T18:17:53.745Z,80.65
2023-04-20T18:18:53.704Z,80.74
2023-04-20T18:19:53.658Z,80.55
2023-04-20T18:21:14.614Z,80.17
2023-04-20T18:22:54.308Z,80.22
2023-04-20T18:23:53.617Z,80.51
2023-04-20T18:24:53.591Z,80.70
2023-04-20T18:25:53.703Z,81.27
2023-04-20T18:27:14.522Z,81.66
2023-04-20T18:28:14.483Z,82.14
2023-04-20T18:28:53.459Z,83.00
2023-04-20T18:29:53.435Z,83.47
2023-04-20T18:30:53.379Z,84.23
2023-04-20T18:32:14.364Z,84.91
2023-04-20T18:33:14.399Z,84.81
2023-04-20T18:33:53.304Z,86.34
2023-04-20T18:34:53.283Z,86.43
2023-04-20T18:35:53.211Z,86.34
2023-04-20T18:37:14.195Z,86.53
2023-04-20T18:38:14.149Z,86.53
2023-04-20T18:38:53.111Z,87.06
2023-04-20T18:39:53.813Z,86.30
2023-04-20T18:40:53.085Z,87.06
2023-04-20T18:42:14.000Z,87.15
2023-04-20T18:43:13.978Z,87.25
2023-04-20T18:43:52.979Z,86.96
2023-04-20T18:44:52.929Z,87.44
2023-04-20T18:45:52.874Z,87.63
2023-04-20T18:47:13.831Z,87.73
2023-04-20T18:48:13.870Z,87.73
2023-04-20T18:48:52.773Z,87.63
2023-04-20T18:49:52.729Z,88.40
2023-04-20T18:50:52.704Z,88.11
2023-04-20T18:52:13.691Z,88.01
2023-04-20T18:53:13.657Z,87.63
2023-04-20T18:53:52.584Z,88.26
2023-04-20T18:54:53.389Z,88.73
2023-04-20T18:55:52.543Z,88.73
2023-04-20T18:57:13.504Z,88.64
2023-04-20T18:58:13.457Z,88.73
2023-04-20T18:58:52.430Z,88.64
2023-04-20T18:59:52.394Z,88.83
2023-04-20T19:00:52.455Z,88.35
2023-04-20T19:02:13.393Z,88.64
2023-04-20T19:03:13.409Z,88.83
2023-04-20T19:03:52.369Z,88.35
2023-04-20T19:04:52.235Z,87.97
2023-04-20T19:05:52.167Z,88.26
2023-04-20T19:07:13.135Z,87.97
2023-04-20T19:08:13.215Z,88.73
2023-04-20T19:08:52.095Z,88.73
2023-04-20T19:09:52.923Z,88.73
2023-04-20T19:10:51.996Z,89.02
2023-04-20T19:12:12.957Z,88.64
2023-04-20T19:13:12.921Z,88.73
2023-04-20T19:13:51.923Z,88.16
2023-04-20T19:14:51.927Z,88.83
2023-04-20T19:16:03.534Z,88.54
2023-04-20T19:17:13.428Z,88.54
2023-04-20T19:18:13.397Z,88.73
2023-04-20T19:18:51.744Z,87.78
2023-04-20T19:19:51.683Z,87.97
2023-04-20T19:20:51.654Z,87.87
2023-04-20T19:22:12.621Z,88.26
2023-04-20T19:23:12.593Z,88.16
2023-04-20T19:23:51.563Z,88.64
2023-04-20T19:24:51.501Z,88.16
2023-04-20T19:25:54.367Z,87.78
2023-04-20T19:27:12.435Z,88.26
2023-04-20T19:28:12.391Z,87.78
2023-04-20T19:28:51.398Z,88.26
2023-04-20T19:29:51.340Z,87.78
2023-04-20T19:30:51.319Z,87.68
2023-04-20T19:32:12.346Z,87.49
2023-04-20T19:33:12.356Z,88.07
2023-04-20T19:33:51.195Z,87.97
2023-04-20T19:34:51.154Z,87.40
2023-04-20T19:35:51.181Z,87.40
2023-04-20T19:37:12.119Z,87.68
2023-04-20T19:38:12.042Z,87.49
2023-04-20T19:38:51.044Z,87.40
2023-04-20T19:39:50.977Z,87.35
2023-04-20T19:40:50.988Z,87.83
2023-04-20T19:42:11.902Z,87.83
2023-04-20T19:43:11.894Z,88.21
2023-04-20T19:43:50.900Z,88.21
2023-04-20T19:44:50.833Z,87.97
2023-04-20T19:45:50.778Z,88.73
2023-04-20T19:47:11.743Z,88.92
2023-04-20T19:48:11.720Z,88.54
2023-04-20T19:48:50.674Z,89.12
2023-04-20T19:49:50.668Z,88.83
2023-04-20T19:50:50.598Z,89.88
2023-04-20T19:52:11.579Z,89.78
2023-04-20T19:53:12.424Z,89.88
2023-04-20T19:53:50.505Z,90.45
2023-04-20T19:54:50.461Z,90.17
2023-04-20T19:55:50.420Z,90.69
2023-04-20T19:57:11.416Z,91.07
2023-04-20T19:58:11.381Z,91.07
2023-04-20T19:58:50.395Z,91.93
2023-04-20T19:59:50.273Z,91.93
2023-04-20T20:00:50.239Z,91.93
2023-04-20T20:02:11.373Z,92.12
2023-04-20T20:03:11.269Z,92.69
2023-04-20T20:03:50.358Z,92.69
2023-04-20T20:04:50.176Z,92.88
2023-04-20T20:05:50.117Z,93.36
2023-04-20T20:07:13.908Z,93.27
2023-04-20T20:08:11.980Z,93.27
2023-04-20T20:08:49.988Z,93.93
2023-04-20T20:09:49.954Z,93.46
2023-04-20T20:10:49.977Z,93.55
2023-04-20T20:12:10.941Z,93.27
2023-04-20T20:13:10.862Z,93.36
2023-04-20T20:13:49.783Z,93.74
2023-04-20T20:14:49.762Z,93.84
2023-04-20T20:15:49.767Z,93.84
2023-04-20T20:17:10.695Z,93.65
2023-04-20T20:18:10.710Z,93.74
2023-04-20T20:18:49.608Z,93.93
2023-04-20T20:19:49.567Z,93.93
2023-04-20T20:20:49.544Z,94.60
2023-04-20T20:22:10.503Z,94.60
2023-04-20T20:23:11.467Z,94.51
2023-04-20T20:23:49.427Z,93.84
2023-04-20T20:24:49.412Z,94.51
2023-04-20T20:25:49.360Z,94.32
2023-04-20T20:27:10.336Z,94.32
2023-04-20T20:28:10.304Z,94.51
2023-04-20T20:28:49.277Z,94.89
2023-04-20T20:29:49.230Z,95.27
2023-04-20T20:30:49.894Z,95.17
2023-04-20T20:32:10.144Z,95.46
2023-04-20T20:33:10.191Z,95.27
2023-04-20T20:33:49.076Z,95.46
2023-04-20T20:34:49.057Z,95.75
2023-04-20T20:35:49.008Z,95.75
2023-04-20T20:37:09.981Z,95.56
2023-04-20T20:38:09.966Z,95.56
2023-04-20T20:38:48.916Z,96.13
2023-04-20T20:39:48.876Z,96.13
2023-04-20T20:40:48.848Z,96.22
2023-04-20T20:42:09.787Z,96.36
2023-04-20T20:43:09.793Z,96.41
2023-04-20T20:43:48.714Z,96.13
2023-04-20T20:44:48.689Z,97.27
2023-04-20T20:45:49.496Z,97.37
2023-04-20T20:47:09.643Z,97.51
2023-04-20T20:48:09.627Z,97.41
2023-04-20T20:48:48.546Z,97.13
2023-04-20T20:49:48.509Z,96.94
2023-04-20T20:50:48.474Z,97.03
2023-04-20T20:52:09.453Z,97.61
2023-04-20T20:53:10.026Z,97.51
2023-04-20T20:53:48.367Z,97.51
2023-04-20T20:54:48.353Z,97.99
2023-04-20T20:55:48.296Z,98.08
2023-04-20T20:57:09.313Z,98.08
2023-04-20T20:58:09.242Z,97.99
2023-04-20T20:58:48.212Z,97.99
2023-04-20T20:59:48.152Z,98.27
2023-04-20T21:00:48.156Z,97.70
2023-04-20T21:02:09.139Z,97.89
2023-04-20T21:03:09.134Z,98.18
2023-04-20T21:03:48.067Z,98.75
2023-04-20T21:04:47.995Z,97.99
2023-04-20T21:05:47.950Z,98.65
2023-04-20T21:07:08.915Z,98.65
2023-04-20T21:08:08.939Z,98.27
2023-04-20T21:08:47.841Z,98.27
2023-04-20T21:09:47.806Z,99.04
2023-04-20T21:10:47.786Z,99.22
2023-04-20T21:12:08.715Z,98.46
2023-04-20T21:13:08.676Z,99.22
2023-04-20T21:13:47.645Z,99.13
2023-04-20T21:14:47.617Z,99.04
2023-04-20T21:15:47.576Z,99.32
2023-04-20T21:17:08.549Z,99.04
2023-04-20T21:18:08.522Z,98.85
2023-04-20T21:18:47.484Z,98.36
2023-04-20T21:19:47.447Z,99.27
2023-04-20T21:20:47.421Z,98.99
2023-04-20T21:22:08.350Z,98.99
2023-04-20T21:23:08.317Z,98.79
2023-04-20T21:23:47.292Z,99.18
2023-04-20T21:24:47.258Z,98.79
2023-04-20T21:25:47.217Z,98.85
2023-04-20T21:27:08.198Z,99.04
2023-04-20T21:28:08.177Z,99.18
2023-04-20T21:28:47.116Z,99.13
2023-04-20T21:29:47.071Z,99.18
2023-04-20T21:30:47.036Z,98.99
2023-04-20T21:32:08.011Z,98.89
2023-04-20T21:33:08.063Z,98.89
2023-04-20T21:33:46.947Z,98.89
2023-04-20T21:34:46.975Z,99.18
2023-04-20T21:35:46.867Z,99.18
2023-04-20T21:37:07.828Z,98.99
2023-04-20T21:38:07.826Z,99.08
2023-04-20T21:38:46.756Z,99.18
2023-04-20T21:39:46.726Z,98.79
2023-04-20T21:40:46.699Z,99.65
2023-04-20T21:42:07.648Z,98.89
2023-04-20T21:43:07.607Z,99.55
2023-04-20T21:43:46.578Z,99.37
2023-04-20T21:44:46.554Z,99.55
2023-04-20T21:45:46.559Z,99.37
2023-04-20T21:47:07.453Z,99.18
2023-04-20T21:48:07.517Z,99.55
2023-04-20T21:48:46.396Z,99.99
2023-04-20T21:49:46.363Z,99.37
2023-04-20T21:50:46.319Z,99.37
2023-04-20T21:52:07.278Z,99.46
2023-04-20T21:53:07.266Z,99.37
2023-04-20T21:53:46.225Z,99.75
2023-04-20T21:54:46.200Z,99.94
2023-04-20T21:55:46.150Z,99.55
2023-04-20T21:57:07.122Z,99.27
2023-04-20T21:58:07.064Z,99.46
2023-04-20T21:58:46.032Z,99.94
2023-04-20T21:59:45.996Z,99.75
2023-04-20T22:00:45.967Z,99.37
2023-04-20T22:02:07.008Z,99.94
2023-04-20T22:03:07.016Z,99.84
2023-04-20T22:03:45.967Z,99.37
2023-04-20T22:04:45.990Z,99.99
2023-04-20T22:05:45.784Z,99.55
2023-04-20T22:07:06.768Z,99.27
2023-04-20T22:08:06.727Z,99.84
2023-04-20T22:08:45.675Z,99.46
2023-04-20T22:09:45.645Z,99.75
2023-04-20T22:10:45.598Z,99.46
2023-04-20T22:12:06.581Z,99.84
2023-04-20T22:13:06.532Z,99.37
2023-04-20T22:13:45.496Z,99.94
2023-04-20T22:14:45.454Z,99.75
2023-04-20T22:15:45.448Z,99.55
2023-04-20T22:17:06.372Z,99.55
2023-04-20T22:18:06.352Z,99.84
2023-04-20T22:18:45.309Z,99.99
2023-04-20T22:19:45.303Z,99.18
2023-04-20T22:20:45.249Z,99.65
2023-04-20T22:22:06.210Z,99.75
2023-04-20T22:23:06.164Z,99.55
2023-04-20T22:23:45.132Z,99.75
2023-04-20T22:24:45.095Z,99.65
2023-04-20T22:25:45.064Z,99.55
2023-04-20T22:27:06.007Z,99.55
2023-04-20T22:28:05.987Z,99.84
2023-04-20T22:28:44.958Z,99.55
2023-04-20T22:29:44.916Z,99.94
2023-04-20T22:30:44.888Z,99.55
2023-04-20T22:32:05.845Z,99.65
2023-04-20T22:33:05.883Z,99.75
2023-04-20T22:33:44.782Z,99.55
2023-04-20T22:34:44.746Z,99.84
2023-04-20T22:35:44.707Z,99.27
2023-04-20T22:37:05.670Z,99.75
2023-04-20T22:38:05.621Z,99.84
2023-04-20T22:38:44.662Z,99.94
2023-04-20T22:39:44.575Z,99.99
2023-04-20T22:40:44.524Z,99.75
2023-04-20T22:42:05.494Z,99.94
2023-04-20T22:43:05.441Z,99.65
2023-04-20T22:43:44.458Z,99.75
2023-04-20T22:44:44.381Z,99.65
2023-04-20T22:45:44.338Z,99.65
2023-04-20T22:47:05.552Z,99.37
2023-04-20T22:48:05.369Z,99.75
2023-04-20T22:48:45.258Z,99.65
2023-04-20T22:49:44.202Z,99.75
2023-04-20T22:50:44.165Z,99.94
2023-04-20T22:52:05.156Z,99.99
2023-04-20T22:53:05.073Z,99.84
2023-04-20T22:53:44.059Z,99.37
2023-04-20T22:54:44.020Z,99.94
2023-04-20T22:55:43.960Z,99.84
2023-04-20T22:57:04.984Z,99.84
2023-04-20T22:58:04.918Z,99.65
2023-04-20T22:58:43.891Z,99.46
2023-04-20T22:59:43.850Z,99.75
2023-04-20T23:00:43.853Z,99.84
2023-04-20T23:02:04.875Z,99.99
2023-04-20T23:03:04.801Z,99.98
2023-04-20T23:03:43.784Z,99.75
2023-04-20T23:04:43.672Z,99.84
2023-04-20T23:05:43.624Z,99.55
2023-04-20T23:07:04.593Z,99.84
2023-04-20T23:08:04.560Z,99.75
2023-04-20T23:08:43.499Z,99.94
2023-04-20T23:09:43.465Z,99.99
2023-04-20T23:10:43.442Z,99.84
2023-04-20T23:12:04.409Z,99.75
2023-04-20T23:13:04.358Z,99.65
2023-04-20T23:13:43.375Z,99.94
2023-04-20T23:14:43.287Z,99.46
2023-04-20T23:15:43.283Z,99.84
2023-04-20T23:17:04.224Z,99.55
2023-04-20T23:18:04.221Z,99.94
2023-04-20T23:18:43.150Z,99.55
2023-04-20T23:19:43.130Z,99.65
2023-04-20T23:20:43.062Z,99.65
2023-04-20T23:22:04.037Z,99.84
2023-04-20T23:23:03.986Z,99.75
2023-04-20T23:23:42.955Z,99.65
2023-04-20T23:24:42.934Z,99.99
2023-04-20T23:25:42.898Z,99.65
2023-04-20T23:27:03.865Z,99.65
2023-04-20T23:28:03.818Z,99.65
2023-04-20T23:28:42.796Z,99.55
2023-04-20T23:29:42.746Z,99.55
2023-04-20T23:30:42.710Z,99.84
2023-04-20T23:32:03.875Z,99.46
2023-04-20T23:33:03.690Z,99.84
2023-04-20T23:33:42.605Z,99.75
2023-04-20T23:34:42.574Z,99.84
2023-04-20T23:35:42.522Z,99.65
2023-04-20T23:37:03.527Z,99.55
2023-04-20T23:38:03.479Z,99.94
2023-04-20T23:38:42.409Z,99.55
2023-04-20T23:39:42.406Z,99.84
2023-04-20T23:40:42.356Z,99.55
2023-04-20T23:42:03.332Z,99.75
2023-04-20T23:43:03.264Z,99.79
2023-04-20T23:43:42.249Z,99.65
2023-04-20T23:44:42.192Z,99.84
2023-04-20T23:45:42.241Z,99.37
2023-04-20T23:47:03.170Z,99.84
2023-04-20T23:48:03.179Z,99.75
2023-04-20T23:48:42.059Z,99.99
2023-04-20T23:49:42.038Z,99.84
2023-04-20T23:50:41.977Z,99.46
2023-04-20T23:52:02.971Z,99.84
2023-04-20T23:53:02.902Z,99.84
2023-04-20T23:53:41.890Z,99.65
2023-04-20T23:54:41.869Z,99.65
2023-04-20T23:55:41.826Z,99.55
2023-04-20T23:57:02.781Z,99.55
2023-04-20T23:58:02.748Z,99.65
2023-04-20T23:58:41.690Z,99.65
2023-04-20T23:59:41.672Z,99.65
